createdAt,value
2023-05-08T00:04:10.897Z,93770.97
2023-05-08T00:09:14.946Z,93771.28
2023-05-08T00:14:18.476Z,93780.78
2023-05-08T00:19:21.576Z,93856.56
2023-05-08T00:24:25.351Z,93816.06
2023-05-08T00:29:28.946Z,93824.13
2023-05-08T00:34:32.660Z,93819.03
2023-05-08T00:39:36.624Z,93771.59
2023-05-08T00:44:40.508Z,93776.13
2023-05-08T00:49:44.303Z,93754.97
2023-05-08T00:54:48.915Z,93755.63
2023-05-08T00:59:54.635Z,93745.63
2023-05-08T01:04:58.872Z,93747.78
2023-05-08T01:10:02.705Z,93760.25
2023-05-08T01:15:44.103Z,93745.78
2023-05-08T01:21:09.779Z,93731.66
2023-05-08T01:26:41.853Z,93760.94
2023-05-08T01:32:10.762Z,93758.75
2023-05-08T01:37:18.180Z,93740.94
2023-05-08T01:42:45.144Z,93741.13
2023-05-08T01:47:59.332Z,93730.81
2023-05-08T01:53:18.520Z,93733.56
2023-05-08T01:58:25.106Z,93708.78
2023-05-08T02:03:32.166Z,93725.09
2023-05-08T02:08:37.687Z,93720.56
2023-05-08T02:13:43.075Z,93715.53
2023-05-08T02:18:52.199Z,93741.53
2023-05-08T02:23:58.702Z,93723.16
2023-05-08T02:29:04.344Z,93710.00
2023-05-08T02:34:10.489Z,93715.78
2023-05-08T02:39:16.546Z,93716.56
2023-05-08T02:44:21.018Z,93723.66
2023-05-08T02:49:45.545Z,93702.78
2023-05-08T02:54:59.431Z,93708.00
2023-05-08T03:00:17.273Z,93695.38
2023-05-08T03:05:30.852Z,93696.09
2023-05-08T03:10:35.836Z,93679.88
2023-05-08T03:15:55.864Z,93669.81
2023-05-08T03:21:02.126Z,93687.88
2023-05-08T03:26:06.620Z,93721.97
2023-05-08T03:31:12.879Z,93739.34
2023-05-08T03:36:18.908Z,93725.22
2023-05-08T03:41:23.236Z,93733.88
2023-05-08T03:46:27.386Z,93728.38
2023-05-08T03:51:33.261Z,93728.75
2023-05-08T03:56:37.717Z,93731.22
2023-05-08T04:01:52.977Z,93741.91
2023-05-08T04:07:08.766Z,93741.66
2023-05-08T04:12:57.953Z,93734.19
2023-05-08T04:18:15.522Z,93730.84
2023-05-08T04:23:22.743Z,93733.28
2023-05-08T04:28:27.974Z,93738.84
2023-05-08T04:33:31.995Z,93736.34
2023-05-08T04:38:40.078Z,93738.56
2023-05-08T04:43:44.705Z,93731.09
2023-05-08T04:48:49.140Z,93729.81
2023-05-08T04:53:54.246Z,93733.75
2023-05-08T04:58:57.435Z,93710.28
2023-05-08T05:04:01.483Z,93699.34
2023-05-08T05:09:05.544Z,93725.09
2023-05-08T05:14:09.412Z,93720.69
2023-05-08T05:19:13.023Z,93718.81
2023-05-08T05:24:18.549Z,93716.63
2023-05-08T05:29:21.955Z,93709.41
2023-05-08T05:34:26.619Z,93717.66
2023-05-08T05:39:29.952Z,93736.38
2023-05-08T05:44:34.820Z,93735.19
2023-05-08T05:49:39.951Z,93733.34
2023-05-08T05:54:43.615Z,93736.53
2023-05-08T05:59:46.909Z,93761.19
2023-05-08T06:04:52.697Z,93771.66
2023-05-08T06:09:56.893Z,93789.97
2023-05-08T06:15:01.248Z,93811.78
2023-05-08T06:20:05.035Z,93822.75
2023-05-08T06:25:10.128Z,93824.50
2023-05-08T06:30:13.956Z,93838.09
2023-05-08T06:35:20.998Z,93830.25
2023-05-08T06:40:24.334Z,93824.84
2023-05-08T06:45:27.890Z,93813.56
2023-05-08T06:50:31.532Z,93806.28
2023-05-08T06:55:35.664Z,93805.66
2023-05-08T07:00:38.919Z,93793.72
2023-05-08T07:05:42.249Z,93785.13
2023-05-08T07:10:46.118Z,93775.16
2023-05-08T07:15:50.187Z,93779.06
2023-05-08T07:20:53.853Z,93762.19
2023-05-08T07:25:58.305Z,93764.88
2023-05-08T07:31:07.344Z,93745.16
2023-05-08T07:36:11.330Z,93743.69
2023-05-08T07:41:14.931Z,93738.97
2023-05-08T07:46:19.287Z,93751.22
2023-05-08T07:51:23.406Z,93770.97
2023-05-08T07:56:28.811Z,93771.47
2023-05-08T08:01:35.391Z,93783.75
2023-05-08T08:06:39.121Z,93789.94
2023-05-08T08:11:42.959Z,93813.75
2023-05-08T08:16:46.861Z,93824.41
2023-05-08T08:21:50.206Z,93816.13
2023-05-08T08:26:54.411Z,93838.41
2023-05-08T08:31:58.633Z,93837.81
2023-05-08T08:37:02.731Z,93827.31
2023-05-08T08:42:07.004Z,93840.78
2023-05-08T08:47:15.047Z,93848.28
2023-05-08T08:52:28.592Z,93864.97
2023-05-08T08:57:35.710Z,93861.63
2023-05-08T09:02:40.400Z,93851.75
2023-05-08T09:07:45.188Z,93848.28
2023-05-08T09:12:48.906Z,93840.50
2023-05-08T09:17:52.162Z,93837.38
2023-05-08T09:22:56.166Z,93858.03
2023-05-08T09:28:16.712Z,93847.81
2023-05-08T09:33:21.331Z,93836.06
2023-05-08T09:38:38.984Z,93835.81
2023-05-08T09:44:00.486Z,93835.97
2023-05-08T09:49:04.789Z,93823.81
2023-05-08T09:54:18.481Z,93832.84
2023-05-08T09:59:33.919Z,93824.47
2023-05-08T10:04:39.092Z,93835.78
2023-05-08T10:09:59.382Z,93831.56
2023-05-08T10:15:02.917Z,93804.53
2023-05-08T10:20:08.754Z,93788.06
2023-05-08T10:25:18.088Z,93774.31
2023-05-08T10:30:26.228Z,93791.50
2023-05-08T10:35:32.250Z,93798.19
2023-05-08T10:40:36.989Z,93811.03
2023-05-08T10:45:41.292Z,93822.38
2023-05-08T10:51:28.996Z,93830.19
2023-05-08T10:56:32.481Z,93814.41
2023-05-08T11:01:39.494Z,93811.59
2023-05-08T11:06:49.548Z,93800.91
2023-05-08T11:12:08.067Z,93815.03
2023-05-08T11:17:11.714Z,93796.97
2023-05-08T11:22:17.821Z,93776.22
2023-05-08T11:27:41.189Z,93781.34
2023-05-08T11:33:07.837Z,93779.41
2023-05-08T11:38:16.694Z,93778.63
2023-05-08T11:43:27.684Z,93764.13
2023-05-08T11:48:33.234Z,93766.75
2023-05-08T11:53:38.104Z,93763.09
2023-05-08T11:58:41.793Z,93770.09
2023-05-08T12:03:45.881Z,93755.06
2023-05-08T12:08:49.767Z,93759.59
2023-05-08T12:13:55.224Z,93746.72
2023-05-08T12:18:59.189Z,93730.47
2023-05-08T12:24:07.512Z,93730.78
2023-05-08T12:29:10.637Z,93725.47
2023-05-08T12:34:14.541Z,93719.78
2023-05-08T12:39:19.557Z,93696.25
2023-05-08T12:44:25.753Z,93700.66
2023-05-08T12:49:33.205Z,93700.28
2023-05-08T12:54:41.482Z,93676.34
2023-05-08T12:59:46.686Z,93671.69
2023-05-08T13:04:58.289Z,93661.28
2023-05-08T13:10:06.175Z,93658.44
2023-05-08T13:15:10.402Z,93656.25
2023-05-08T13:20:14.633Z,93637.38
2023-05-08T13:25:18.436Z,93628.38
2023-05-08T13:30:22.658Z,93615.69
2023-05-08T13:35:26.365Z,93591.50
2023-05-08T13:40:30.590Z,93605.22
2023-05-08T13:45:34.263Z,93609.13
2023-05-08T13:50:37.651Z,93603.31
2023-05-08T13:55:42.550Z,93597.84
2023-05-08T14:00:46.973Z,93592.47
2023-05-08T14:05:50.601Z,93584.69
2023-05-08T14:10:54.324Z,93583.53
2023-05-08T14:15:58.169Z,93570.84
2023-05-08T14:21:02.262Z,93565.25
2023-05-08T14:26:05.939Z,93560.81
2023-05-08T14:31:09.647Z,93554.97
2023-05-08T14:36:12.891Z,93552.88
2023-05-08T14:41:16.191Z,93548.09
2023-05-08T14:46:20.249Z,93555.53
2023-05-08T14:51:24.289Z,93551.09
2023-05-08T14:56:30.198Z,93531.75
2023-05-08T15:01:36.793Z,93545.50
2023-05-08T15:06:41.915Z,93540.97
2023-05-08T15:11:45.791Z,93526.81
2023-05-08T15:16:50.060Z,93540.97
2023-05-08T15:21:54.369Z,93550.34
2023-05-08T15:26:58.490Z,93543.75
2023-05-08T15:32:02.084Z,93545.22
2023-05-08T15:37:06.531Z,93543.31
2023-05-08T15:42:11.067Z,93543.44
2023-05-08T15:47:15.274Z,93548.25
2023-05-08T15:52:20.197Z,93528.34
2023-05-08T15:57:27.267Z,93511.13
2023-05-08T16:02:31.588Z,93526.97
2023-05-08T16:07:35.414Z,93543.06
2023-05-08T16:12:39.353Z,93545.00
2023-05-08T16:17:43.226Z,93490.69
2023-05-08T16:22:47.431Z,93477.81
2023-05-08T16:27:51.987Z,93479.78
2023-05-08T16:32:56.131Z,93451.75
2023-05-08T16:38:00.003Z,93469.63
2023-05-08T16:43:04.192Z,93481.00
2023-05-08T16:48:07.429Z,93498.88
2023-05-08T16:53:11.164Z,93495.09
2023-05-08T16:58:16.309Z,93511.53
2023-05-08T17:03:20.372Z,93521.09
2023-05-08T17:08:24.670Z,93518.28
2023-05-08T17:13:28.122Z,93516.13
2023-05-08T17:18:33.884Z,93511.41
2023-05-08T17:23:38.027Z,93513.00
2023-05-08T17:28:41.482Z,93522.00
2023-05-08T17:33:44.836Z,93518.94
2023-05-08T17:38:50.737Z,93535.06
2023-05-08T17:43:54.406Z,93516.66
2023-05-08T17:48:57.697Z,93525.66
2023-05-08T17:54:02.140Z,93528.03
2023-05-08T17:59:06.381Z,93544.13
2023-05-08T18:04:10.119Z,93566.41
2023-05-08T18:09:14.210Z,93563.75
2023-05-08T18:14:18.013Z,93572.03
2023-05-08T18:19:21.867Z,93572.41
2023-05-08T18:24:25.745Z,93569.28
2023-05-08T18:29:29.368Z,93572.44
2023-05-08T18:34:33.268Z,93564.59
2023-05-08T18:39:37.071Z,93558.41
2023-05-08T18:44:40.714Z,93565.09
2023-05-08T18:49:44.514Z,93569.81
2023-05-08T18:54:48.770Z,93567.50
2023-05-08T18:59:52.961Z,93561.19
2023-05-08T19:04:57.003Z,93561.63
2023-05-08T19:10:00.825Z,93569.47
2023-05-08T19:15:04.144Z,93570.66
2023-05-08T19:20:08.541Z,93586.72
2023-05-08T19:25:12.982Z,93593.38
2023-05-08T19:30:16.785Z,93583.97
2023-05-08T19:35:21.421Z,93581.63
2023-05-08T19:40:24.540Z,93582.81
2023-05-08T19:45:27.637Z,93589.84
2023-05-08T19:50:31.786Z,93581.22
2023-05-08T19:55:36.055Z,93562.44
2023-05-08T20:00:39.628Z,93582.78
2023-05-08T20:05:42.924Z,93583.56
2023-05-08T20:10:50.052Z,93570.28
2023-05-08T20:15:54.432Z,93578.88
2023-05-08T20:20:58.445Z,93576.53
2023-05-08T20:26:02.542Z,93562.44
2023-05-08T20:31:06.606Z,93582.03
2023-05-08T20:36:10.447Z,93586.72
2023-05-08T20:41:13.556Z,93588.28
2023-05-08T20:46:16.708Z,93586.72
2023-05-08T20:51:20.133Z,93586.72
2023-05-08T20:56:23.875Z,93607.47
2023-05-08T21:01:27.733Z,93609.81
2023-05-08T21:06:31.511Z,93614.13
2023-05-08T21:11:36.035Z,93605.13
2023-05-08T21:16:39.723Z,93608.66
2023-05-08T21:21:45.307Z,93583.56
2023-05-08T21:26:48.999Z,93613.31
2023-05-08T21:31:52.944Z,93592.53
2023-05-08T21:36:56.314Z,93593.34
2023-05-08T21:42:00.414Z,93575.34
2023-05-08T21:47:04.460Z,93603.13
2023-05-08T21:52:08.379Z,93597.66
2023-05-08T21:57:12.033Z,93599.63
2023-05-08T22:02:16.862Z,93599.22
2023-05-08T22:07:21.665Z,93594.50
2023-05-08T22:12:25.449Z,93587.81
2023-05-08T22:17:29.948Z,93575.66
2023-05-08T22:22:33.825Z,93586.91
2023-05-08T22:27:37.448Z,93593.16
2023-05-08T22:32:40.699Z,93582.16
2023-05-08T22:37:44.217Z,93604.44
2023-05-08T22:42:47.973Z,93600.09
2023-05-08T22:47:51.701Z,93604.78
2023-05-08T22:52:55.968Z,93607.91
2023-05-08T22:57:59.642Z,93592.19
2023-05-08T23:03:03.884Z,93594.13
2023-05-08T23:08:07.549Z,93578.78
2023-05-08T23:13:11.308Z,93571.69
2023-05-08T23:18:15.147Z,93566.59
2023-05-08T23:23:18.882Z,93560.31
2023-05-08T23:28:22.626Z,93546.19
2023-05-08T23:33:25.898Z,93518.72
2023-05-08T23:38:29.840Z,93526.97
2023-05-08T23:43:33.610Z,93524.97
2023-05-08T23:48:37.157Z,93517.91
2023-05-08T23:53:41.028Z,93515.19
2023-05-08T23:58:45.303Z,93500.72
